createdAt,value
2022-10-01T00:02:16.983Z,91.80
2022-10-01T00:04:44.645Z,91.53
2022-10-01T00:07:15.430Z,98.00
2022-10-01T00:09:43.149Z,93.70
2022-10-01T00:12:10.923Z,89.43
2022-10-01T00:14:39.628Z,94.20
2022-10-01T00:17:07.362Z,93.05
2022-10-01T00:19:35.050Z,87.60
2022-10-01T00:22:02.854Z,87.88
2022-10-01T00:24:30.520Z,88.28
2022-10-01T00:26:58.209Z,88.85
2022-10-01T00:29:25.919Z,91.35
2022-10-01T00:31:53.573Z,95.07
2022-10-01T00:34:21.259Z,91.53
2022-10-01T00:36:49.488Z,92.85
2022-10-01T00:39:17.198Z,88.95
2022-10-01T00:41:44.990Z,85.43
2022-10-01T00:44:33.208Z,93.88
2022-10-01T00:47:14.219Z,88.85
2022-10-01T00:49:43.501Z,88.72
2022-10-01T00:52:16.293Z,91.57
2022-10-01T00:54:49.465Z,96.68
2022-10-01T00:57:21.103Z,85.72
2022-10-01T00:59:50.622Z,87.97
2022-10-01T01:02:18.244Z,95.78
2022-10-01T01:04:46.213Z,98.45
2022-10-01T01:07:14.705Z,96.80
2022-10-01T01:09:49.582Z,90.47
2022-10-01T01:12:33.932Z,87.40
2022-10-01T01:15:12.377Z,86.68
2022-10-01T01:18:09.809Z,91.90
2022-10-01T01:21:08.146Z,89.22
2022-10-01T01:24:02.612Z,85.20
2022-10-01T01:26:36.863Z,85.95
2022-10-01T01:29:17.198Z,86.63
2022-10-01T01:31:46.853Z,85.25
2022-10-01T01:34:23.181Z,89.50
2022-10-01T01:36:58.719Z,92.97
2022-10-01T01:39:29.997Z,84.70
2022-10-01T01:42:03.786Z,92.43
2022-10-01T01:44:37.306Z,90.82
2022-10-01T01:47:07.553Z,89.18
2022-10-01T01:49:36.074Z,91.43
2022-10-01T01:52:16.072Z,93.10
2022-10-01T01:54:49.823Z,101.45
2022-10-01T01:57:19.933Z,88.65
2022-10-01T01:59:47.993Z,88.65
2022-10-01T02:02:23.083Z,93.30
2022-10-01T02:04:56.379Z,99.40
2022-10-01T02:07:36.346Z,88.05
2022-10-01T02:10:25.888Z,98.90
2022-10-01T02:13:11.523Z,90.65
2022-10-01T02:15:56.313Z,87.68
2022-10-01T02:18:57.287Z,91.38
2022-10-01T02:21:40.725Z,106.05
2022-10-01T02:24:21.146Z,113.93
2022-10-01T02:26:51.059Z,119.40
2022-10-01T02:29:22.148Z,127.00
2022-10-01T02:31:53.606Z,135.48
2022-10-01T02:34:25.619Z,131.80
2022-10-01T02:36:55.329Z,134.63
2022-10-01T02:39:27.309Z,129.75
2022-10-01T02:41:56.868Z,136.35
2022-10-01T02:44:38.214Z,132.90
2022-10-01T02:47:45.245Z,128.25
2022-10-01T02:50:14.270Z,128.98
2022-10-01T02:52:58.668Z,123.03
2022-10-01T02:55:47.400Z,120.40
2022-10-01T02:58:15.097Z,111.25
2022-10-01T03:00:42.749Z,106.57
2022-10-01T03:03:10.408Z,114.65
2022-10-01T03:05:38.070Z,116.72
2022-10-01T03:08:05.691Z,111.40
2022-10-01T03:10:33.858Z,116.30
2022-10-01T03:13:01.968Z,112.60
2022-10-01T03:15:29.612Z,108.22
2022-10-01T03:17:57.186Z,112.72
2022-10-01T03:20:24.790Z,108.07
2022-10-01T03:22:52.671Z,104.45
2022-10-01T03:25:20.225Z,106.35
2022-10-01T03:27:52.336Z,105.93
2022-10-01T03:30:20.101Z,108.40
2022-10-01T03:32:47.690Z,103.55
2022-10-01T03:35:15.572Z,102.47
2022-10-01T03:37:43.153Z,108.40
2022-10-01T03:40:10.891Z,113.50
2022-10-01T03:42:38.771Z,111.18
2022-10-01T03:45:06.863Z,102.47
2022-10-01T03:47:34.440Z,99.13
2022-10-01T03:50:02.082Z,102.47
2022-10-01T03:52:30.323Z,111.13
2022-10-01T03:54:58.279Z,113.50
2022-10-01T03:57:25.884Z,109.25
2022-10-01T03:59:53.488Z,110.35
2022-10-01T04:02:22.136Z,114.45
2022-10-01T04:04:49.839Z,116.07
2022-10-01T04:07:17.478Z,116.70
2022-10-01T04:09:45.143Z,107.20
2022-10-01T04:12:12.821Z,107.78
2022-10-01T04:14:40.389Z,112.85
2022-10-01T04:17:08.018Z,110.07
2022-10-01T04:19:35.739Z,115.25
2022-10-01T04:22:05.763Z,111.90
2022-10-01T04:24:36.360Z,113.82
2022-10-01T04:27:04.017Z,121.32
2022-10-01T04:29:31.558Z,119.03
2022-10-01T04:31:59.478Z,114.80
2022-10-01T04:34:47.073Z,126.60
2022-10-01T04:37:14.719Z,117.90
2022-10-01T04:39:42.238Z,113.88
2022-10-01T04:42:09.843Z,109.05
2022-10-01T04:44:37.391Z,111.22
2022-10-01T04:47:05.231Z,111.05
2022-10-01T04:49:33.651Z,116.45
2022-10-01T04:52:01.471Z,126.50
2022-10-01T04:54:29.073Z,114.72
2022-10-01T04:56:58.411Z,113.43
2022-10-01T04:59:26.079Z,109.18
2022-10-01T05:01:53.786Z,112.78
2022-10-01T05:04:21.360Z,127.53
2022-10-01T05:06:49.127Z,122.55
2022-10-01T05:09:16.782Z,119.00
2022-10-01T05:11:44.410Z,120.05
2022-10-01T05:14:12.449Z,114.38
2022-10-01T05:16:40.128Z,120.60
2022-10-01T05:19:07.882Z,113.55
2022-10-01T05:21:37.519Z,121.90
2022-10-01T05:24:05.831Z,113.30
2022-10-01T05:26:33.630Z,116.55
2022-10-01T05:29:01.472Z,124.63
2022-10-01T05:31:29.129Z,130.50
2022-10-01T05:33:56.939Z,122.57
2022-10-01T05:36:24.655Z,125.57
2022-10-01T05:38:52.560Z,121.95
2022-10-01T05:41:20.334Z,125.20
2022-10-01T05:43:49.443Z,122.32
2022-10-01T05:46:17.283Z,118.45
2022-10-01T05:48:45.419Z,112.72
2022-10-01T05:51:16.324Z,125.65
2022-10-01T05:53:47.089Z,114.10
2022-10-01T05:56:17.824Z,114.80
2022-10-01T05:58:46.953Z,117.10
2022-10-01T06:01:14.680Z,113.55
2022-10-01T06:03:43.030Z,115.80
2022-10-01T06:06:10.781Z,113.50
2022-10-01T06:08:38.416Z,110.43
2022-10-01T06:11:06.291Z,104.53
2022-10-01T06:13:35.982Z,110.45
2022-10-01T06:16:03.746Z,117.47
2022-10-01T06:18:31.425Z,113.25
2022-10-01T06:20:59.942Z,112.47
2022-10-01T06:23:28.141Z,121.43
2022-10-01T06:25:55.794Z,100.80
2022-10-01T06:28:23.458Z,123.30
2022-10-01T06:30:51.104Z,120.60
2022-10-01T06:33:19.491Z,108.10
2022-10-01T06:35:51.734Z,121.03
2022-10-01T06:38:21.903Z,120.57
2022-10-01T06:41:00.602Z,112.13
2022-10-01T06:43:30.263Z,112.30
2022-10-01T06:46:02.590Z,108.22
2022-10-01T06:48:31.561Z,117.68
2022-10-01T06:50:59.890Z,120.10
2022-10-01T06:53:28.686Z,122.35
2022-10-01T06:55:56.345Z,121.15
2022-10-01T06:58:28.411Z,127.20
2022-10-01T07:01:03.543Z,122.97
2022-10-01T07:03:31.675Z,133.30
2022-10-01T07:06:04.918Z,130.38
2022-10-01T07:08:33.513Z,120.57
2022-10-01T07:11:04.986Z,123.43
2022-10-01T07:13:32.765Z,121.30
2022-10-01T07:16:03.745Z,124.30
2022-10-01T07:18:31.602Z,127.03
2022-10-01T07:20:59.676Z,124.72
2022-10-01T07:23:27.361Z,126.22
2022-10-01T07:25:55.088Z,128.25
2022-10-01T07:28:25.817Z,125.57
2022-10-01T07:31:06.927Z,126.72
2022-10-01T07:33:34.762Z,126.35
2022-10-01T07:36:04.404Z,130.50
2022-10-01T07:38:33.843Z,133.15
2022-10-01T07:41:03.053Z,128.30
2022-10-01T07:43:32.645Z,131.93
2022-10-01T07:46:02.280Z,134.55
2022-10-01T07:48:31.227Z,136.30
2022-10-01T07:50:58.919Z,130.98
2022-10-01T07:53:27.153Z,116.53
2022-10-01T07:55:54.883Z,125.25
2022-10-01T07:58:24.371Z,112.15
2022-10-01T08:00:58.417Z,114.38
2022-10-01T08:03:26.368Z,115.30
2022-10-01T08:05:54.802Z,99.13
2022-10-01T08:08:22.644Z,96.68
2022-10-01T08:10:51.138Z,101.32
2022-10-01T08:13:18.911Z,86.63
2022-10-01T08:15:53.508Z,85.78
2022-10-01T08:18:22.662Z,83.72
2022-10-01T08:20:50.739Z,77.30
2022-10-01T08:23:18.812Z,74.38
2022-10-01T08:25:48.120Z,79.20
2022-10-01T08:28:16.625Z,82.32
2022-10-01T08:30:44.494Z,73.97
2022-10-01T08:33:13.657Z,75.60
2022-10-01T08:35:43.718Z,76.78
2022-10-01T08:38:13.197Z,89.38
2022-10-01T08:40:50.115Z,71.53
2022-10-01T08:43:36.537Z,68.93
2022-10-01T08:46:13.919Z,71.85
2022-10-01T08:49:02.960Z,65.70
2022-10-01T08:51:45.782Z,63.75
2022-10-01T08:54:43.758Z,69.00
2022-10-01T08:57:25.705Z,59.10
2022-10-01T08:59:57.970Z,63.03
2022-10-01T09:02:28.810Z,56.78
2022-10-01T09:05:03.143Z,61.70
2022-10-01T09:07:52.977Z,61.63
2022-10-01T09:10:29.698Z,59.40
2022-10-01T09:13:22.205Z,61.38
2022-10-01T09:16:11.343Z,56.22
2022-10-01T09:19:23.076Z,60.88
2022-10-01T09:21:58.183Z,60.90
2022-10-01T09:24:42.973Z,59.03
2022-10-01T09:27:15.500Z,60.28
2022-10-01T09:30:16.195Z,68.32
2022-10-01T09:32:50.993Z,70.60
2022-10-01T09:35:33.007Z,64.85
2022-10-01T09:38:09.397Z,72.15
2022-10-01T09:40:46.884Z,72.75
2022-10-01T09:43:15.385Z,72.93
2022-10-01T09:45:43.205Z,68.93
2022-10-01T09:48:25.075Z,71.50
2022-10-01T09:50:59.283Z,76.15
2022-10-01T09:53:35.296Z,75.35
2022-10-01T09:56:15.065Z,81.13
2022-10-01T09:58:48.375Z,60.80
2022-10-01T10:01:27.306Z,65.57
2022-10-01T10:03:58.477Z,76.25
2022-10-01T10:08:58.466Z,80.97
2022-10-01T10:11:29.300Z,71.88
2022-10-01T10:14:02.582Z,78.45
2022-10-01T10:16:48.149Z,77.65
2022-10-01T10:19:22.927Z,79.70
2022-10-01T10:21:57.272Z,68.80
2022-10-01T10:24:33.773Z,71.45
2022-10-01T10:27:04.371Z,70.20
2022-10-01T10:29:37.173Z,66.70
2022-10-01T10:32:21.324Z,68.22
2022-10-01T10:34:49.896Z,73.80
2022-10-01T10:37:23.597Z,69.18
2022-10-01T10:39:52.524Z,74.93
2022-10-01T10:42:22.860Z,76.15
2022-10-01T10:44:54.805Z,75.43
2022-10-01T10:47:24.485Z,77.43
2022-10-01T10:49:57.109Z,76.32
2022-10-01T10:52:37.005Z,83.05
2022-10-01T10:55:19.736Z,82.47
2022-10-01T10:57:47.877Z,85.60
2022-10-01T11:00:27.096Z,83.65
2022-10-01T11:03:00.195Z,76.47
2022-10-01T11:05:32.858Z,77.13
2022-10-01T11:08:07.357Z,79.95
2022-10-01T11:10:59.820Z,92.18
2022-10-01T11:13:27.658Z,82.18
2022-10-01T11:16:02.844Z,78.32
2022-10-01T11:18:36.902Z,79.20
2022-10-01T11:21:25.932Z,82.85
2022-10-01T11:24:11.701Z,82.70
2022-10-01T11:27:06.403Z,88.15
2022-10-01T11:29:44.256Z,83.85
2022-10-01T11:32:50.042Z,78.93
2022-10-01T11:35:29.081Z,77.70
2022-10-01T11:37:59.991Z,71.57
2022-10-01T11:40:33.525Z,66.72
2022-10-01T11:43:11.449Z,71.50
2022-10-01T11:45:47.145Z,68.07
2022-10-01T11:48:31.046Z,65.25
2022-10-01T11:51:07.899Z,65.38
2022-10-01T11:53:45.601Z,66.70
2022-10-01T11:56:46.360Z,64.78
2022-10-01T11:59:25.079Z,58.92
2022-10-01T12:02:02.341Z,60.05
2022-10-01T12:04:39.033Z,53.70
2022-10-01T12:07:38.532Z,45.40
2022-10-01T12:10:38.316Z,45.22
2022-10-01T12:13:33.001Z,46.17
2022-10-01T12:16:13.132Z,44.10
2022-10-01T12:18:40.993Z,40.42
2022-10-01T12:21:26.951Z,37.17
2022-10-01T12:24:04.149Z,38.80
2022-10-01T12:26:45.308Z,41.80
2022-10-01T12:29:24.950Z,39.33
2022-10-01T12:32:04.926Z,41.95
2022-10-01T12:34:45.119Z,42.63
2022-10-01T12:37:33.432Z,40.20
2022-10-01T12:40:19.762Z,37.50
2022-10-01T12:43:22.779Z,37.13
2022-10-01T12:46:18.418Z,37.90
2022-10-01T12:48:56.941Z,36.13
2022-10-01T12:51:53.624Z,34.45
2022-10-01T12:54:49.034Z,30.90
2022-10-01T12:57:50.280Z,31.92
2022-10-01T13:00:25.115Z,27.48
2022-10-01T13:02:53.350Z,30.00
2022-10-01T13:05:24.054Z,32.38
2022-10-01T13:08:14.722Z,30.85
2022-10-01T13:10:54.080Z,29.73
2022-10-01T13:13:27.239Z,31.75
2022-10-01T13:16:07.184Z,27.73
2022-10-01T13:18:42.213Z,31.23
2022-10-01T13:21:48.052Z,25.00
2022-10-01T13:24:31.093Z,29.25
2022-10-01T13:27:05.897Z,27.00
2022-10-01T13:29:50.829Z,24.85
2022-10-01T13:32:34.371Z,23.30
2022-10-01T13:35:21.487Z,25.00
2022-10-01T13:37:49.164Z,23.92
2022-10-01T13:40:35.697Z,28.27
2022-10-01T13:43:18.443Z,31.65
2022-10-01T13:45:49.043Z,29.67
2022-10-01T13:48:26.341Z,35.58
2022-10-01T13:51:07.396Z,27.55
2022-10-01T13:53:41.189Z,27.55
2022-10-01T13:56:30.216Z,28.40
2022-10-01T13:58:58.311Z,32.80
2022-10-01T14:01:40.588Z,40.45
2022-10-01T14:04:26.682Z,31.20
2022-10-01T14:07:02.687Z,36.65
2022-10-01T14:09:52.891Z,32.38
2022-10-01T14:12:47.717Z,29.35
2022-10-01T14:15:38.713Z,34.03
2022-10-01T14:18:30.799Z,32.92
2022-10-01T14:21:07.872Z,32.45
2022-10-01T14:23:50.113Z,32.20
2022-10-01T14:26:39.972Z,34.75
2022-10-01T14:29:17.162Z,35.05
2022-10-01T14:32:21.206Z,33.45
2022-10-01T14:35:21.173Z,32.97
2022-10-01T14:37:50.448Z,40.95
2022-10-01T14:40:21.476Z,34.70
2022-10-01T14:42:59.372Z,34.72
2022-10-01T14:45:28.420Z,31.52
2022-10-01T14:48:07.261Z,34.28
2022-10-01T14:50:37.521Z,35.85
2022-10-01T14:53:06.947Z,38.70
2022-10-01T14:55:35.341Z,46.95
2022-10-01T14:58:05.378Z,46.65
2022-10-01T15:00:33.605Z,43.58
2022-10-01T15:03:04.268Z,47.47
2022-10-01T15:05:34.367Z,48.55
2022-10-01T15:08:23.932Z,46.17
2022-10-01T15:10:56.509Z,46.60
2022-10-01T15:13:29.204Z,51.72
2022-10-01T15:15:57.138Z,46.35
2022-10-01T15:18:26.125Z,51.97
2022-10-01T15:21:00.085Z,52.92
2022-10-01T15:23:30.703Z,53.80
2022-10-01T15:26:01.652Z,54.45
2022-10-01T15:28:33.034Z,53.47
2022-10-01T15:31:06.457Z,56.42
2022-10-01T15:33:37.371Z,53.40
2022-10-01T15:36:07.761Z,60.80
2022-10-01T15:38:36.641Z,57.93
2022-10-01T15:41:29.909Z,56.50
2022-10-01T15:43:54.241Z,64.60
2022-10-01T15:46:35.507Z,58.25
2022-10-01T15:49:24.348Z,65.68
2022-10-01T15:52:23.331Z,59.83
2022-10-01T15:54:59.338Z,64.85
2022-10-01T15:57:30.365Z,50.65
2022-10-01T15:59:59.094Z,58.80
2022-10-01T16:02:30.522Z,58.70
2022-10-01T16:05:09.193Z,55.50
2022-10-01T16:07:38.095Z,59.47
2022-10-01T16:10:34.705Z,62.42
2022-10-01T16:13:27.292Z,81.55
2022-10-01T16:16:07.499Z,62.55
2022-10-01T16:18:37.730Z,69.03
2022-10-01T16:21:07.159Z,62.25
2022-10-01T16:23:48.179Z,58.75
2022-10-01T16:26:33.627Z,60.28
2022-10-01T16:29:07.336Z,61.22
2022-10-01T16:31:37.076Z,58.45
2022-10-01T16:34:11.265Z,61.95
2022-10-01T16:36:39.398Z,56.47
2022-10-01T16:39:07.616Z,56.92
2022-10-01T16:41:36.137Z,56.53
2022-10-01T16:44:05.684Z,64.45
2022-10-01T16:46:33.606Z,61.08
2022-10-01T16:49:01.362Z,55.03
2022-10-01T16:51:29.230Z,59.17
2022-10-01T16:53:57.241Z,58.53
2022-10-01T16:56:27.315Z,60.35
2022-10-01T16:58:55.288Z,62.83
2022-10-01T17:01:23.301Z,54.95
2022-10-01T17:03:51.066Z,63.92
2022-10-01T17:06:18.795Z,60.25
2022-10-01T17:08:49.173Z,67.93
2022-10-01T17:11:18.216Z,64.97
2022-10-01T17:13:46.048Z,63.13
2022-10-01T17:16:13.871Z,60.70
2022-10-01T17:18:44.264Z,62.03
2022-10-01T17:21:14.208Z,63.53
2022-10-01T17:23:53.389Z,67.18
2022-10-01T17:26:35.571Z,64.47
2022-10-01T17:29:03.679Z,67.18
2022-10-01T17:31:31.537Z,68.47
2022-10-01T17:34:01.887Z,67.05
2022-10-01T17:36:34.239Z,64.18
2022-10-01T17:39:03.495Z,67.70
2022-10-01T17:41:31.534Z,78.38
2022-10-01T17:43:59.252Z,73.05
2022-10-01T17:46:27.188Z,72.50
2022-10-01T17:49:02.153Z,70.50
2022-10-01T17:51:30.181Z,74.13
2022-10-01T17:53:58.437Z,77.00
2022-10-01T17:56:26.239Z,73.35
2022-10-01T17:58:54.926Z,78.07
2022-10-01T18:01:23.023Z,75.38
2022-10-01T18:03:55.908Z,76.10
2022-10-01T18:06:24.809Z,74.60
2022-10-01T18:08:56.814Z,74.20
2022-10-01T18:11:27.334Z,84.07
2022-10-01T18:13:55.289Z,79.80
2022-10-01T18:16:23.904Z,77.25
2022-10-01T18:21:48.405Z,87.70
2022-10-01T18:24:17.057Z,90.43
2022-10-01T18:26:45.921Z,93.18
2022-10-01T18:29:19.468Z,84.15
2022-10-01T18:31:52.634Z,82.28
2022-10-01T18:34:47.866Z,86.95
2022-10-01T18:37:15.577Z,91.05
2022-10-01T18:39:45.770Z,81.45
2022-10-01T18:42:19.499Z,89.45
2022-10-01T18:44:57.096Z,93.10
2022-10-01T18:47:35.111Z,93.00
2022-10-01T18:50:25.273Z,89.20
2022-10-01T18:52:52.844Z,90.13
2022-10-01T18:55:36.416Z,97.68
2022-10-01T18:58:26.013Z,93.55
2022-10-01T19:01:09.108Z,92.90
2022-10-01T19:04:02.215Z,88.22
2022-10-01T19:06:45.372Z,83.13
2022-10-01T19:09:27.332Z,100.35
2022-10-01T19:12:16.388Z,92.53
2022-10-01T19:15:11.013Z,108.10
2022-10-01T19:17:54.232Z,89.93
2022-10-01T19:20:46.379Z,99.85
2022-10-01T19:23:46.347Z,94.45
2022-10-01T19:26:31.775Z,95.00
2022-10-01T19:29:17.960Z,97.43
2022-10-01T19:31:51.961Z,103.80
2022-10-01T19:34:30.473Z,101.82
2022-10-01T19:37:06.332Z,118.53
2022-10-01T19:39:39.560Z,139.65
2022-10-01T19:42:12.565Z,122.47
2022-10-01T19:44:46.336Z,137.65
2022-10-01T19:47:29.259Z,131.07
2022-10-01T19:50:06.571Z,139.35
2022-10-01T19:52:40.153Z,136.13
2022-10-01T19:55:16.158Z,136.68
2022-10-01T19:57:44.851Z,134.05
2022-10-01T20:00:43.176Z,121.63
2022-10-01T20:06:43.550Z,166.75
2022-10-01T20:09:27.536Z,137.63
2022-10-01T20:12:12.859Z,127.30
2022-10-01T20:15:23.683Z,121.65
2022-10-01T20:18:28.161Z,116.40
2022-10-01T20:21:30.101Z,126.03
2022-10-01T20:24:35.552Z,116.20
2022-10-01T20:28:12.071Z,124.00
2022-10-01T20:31:20.212Z,117.72
2022-10-01T20:34:13.602Z,121.95
2022-10-01T20:37:40.313Z,122.57
2022-10-01T20:40:29.488Z,122.30
2022-10-01T20:43:09.501Z,123.68
2022-10-01T20:45:40.554Z,126.28
2022-10-01T20:51:37.443Z,128.68
2022-10-01T20:54:13.780Z,118.88
2022-10-01T20:57:08.695Z,118.75
2022-10-01T20:59:41.270Z,125.30
2022-10-01T21:02:17.779Z,117.43
2022-10-01T21:04:57.092Z,124.95
2022-10-01T21:07:38.576Z,126.30
2022-10-01T21:10:36.516Z,122.45
2022-10-01T21:13:31.853Z,119.75
2022-10-01T21:16:37.921Z,122.85
2022-10-01T21:19:31.023Z,121.25
2022-10-01T21:22:29.696Z,120.65
2022-10-01T21:25:16.703Z,119.57
2022-10-01T21:28:00.270Z,122.85
2022-10-01T21:30:36.252Z,112.30
2022-10-01T21:33:19.042Z,103.50
2022-10-01T21:35:58.481Z,103.03
2022-10-01T21:38:37.685Z,97.78
2022-10-01T21:41:27.798Z,96.85
2022-10-01T21:44:16.356Z,94.15
2022-10-01T21:47:03.674Z,89.47
2022-10-01T21:50:02.142Z,88.57
2022-10-01T21:52:45.475Z,82.63
2022-10-01T21:55:31.351Z,85.88
2022-10-01T21:58:10.933Z,79.93
2022-10-01T22:00:38.942Z,78.35
2022-10-01T22:03:19.895Z,83.85
2022-10-01T22:05:53.241Z,79.90
2022-10-01T22:08:29.591Z,85.43
2022-10-01T22:11:02.844Z,80.07
2022-10-01T22:13:35.720Z,80.45
2022-10-01T22:16:16.101Z,78.35
2022-10-01T22:18:49.223Z,73.93
2022-10-01T22:21:31.050Z,74.68
2022-10-01T22:24:15.521Z,71.30
2022-10-01T22:26:49.311Z,69.55
2022-10-01T22:29:21.858Z,66.97
2022-10-01T22:31:54.355Z,70.55
2022-10-01T22:34:26.201Z,75.35
2022-10-01T22:37:04.759Z,69.40
2022-10-01T22:39:42.722Z,71.63
2022-10-01T22:42:42.682Z,66.40
2022-10-01T22:45:15.684Z,66.95
2022-10-01T22:48:07.646Z,70.10
2022-10-01T22:50:46.692Z,69.80
2022-10-01T22:53:14.420Z,63.88
2022-10-01T22:55:55.397Z,61.83
2022-10-01T22:58:38.424Z,60.55
2022-10-01T23:01:33.969Z,59.58
2022-10-01T23:04:26.419Z,53.70
2022-10-01T23:07:28.671Z,52.55
2022-10-01T23:10:08.463Z,44.45
2022-10-01T23:13:05.513Z,46.53
2022-10-01T23:15:49.676Z,41.95
2022-10-01T23:18:34.573Z,41.67
2022-10-01T23:21:10.141Z,41.95
2022-10-01T23:23:40.792Z,34.50
2022-10-01T23:26:46.521Z,38.72
2022-10-01T23:29:19.482Z,34.83
2022-10-01T23:32:07.350Z,37.22
2022-10-01T23:34:54.532Z,33.08
2022-10-01T23:37:47.619Z,35.28
2022-10-01T23:40:20.890Z,35.85
2022-10-01T23:43:05.625Z,33.22
2022-10-01T23:45:52.930Z,30.90
2022-10-01T23:48:31.078Z,31.40
2022-10-01T23:51:35.830Z,31.70
2022-10-01T23:54:27.347Z,34.97
2022-10-01T23:59:55.690Z,32.58
